createdAt,value
2022-08-03T00:00:04.130Z,20.88
2022-08-03T00:01:04.148Z,20.88
2022-08-03T00:02:04.118Z,20.87
2022-08-03T00:03:04.142Z,20.88
2022-08-03T00:04:04.104Z,20.85
2022-08-03T00:05:04.097Z,20.87
2022-08-03T00:06:05.226Z,20.85
2022-08-03T00:07:04.066Z,20.82
2022-08-03T00:08:04.061Z,20.81
2022-08-03T00:09:04.048Z,20.82
2022-08-03T00:10:04.045Z,20.79
2022-08-03T00:11:04.049Z,20.79
2022-08-03T00:12:04.030Z,20.78
2022-08-03T00:13:04.023Z,20.76
2022-08-03T00:14:03.999Z,20.76
2022-08-03T00:15:03.990Z,20.75
2022-08-03T00:16:03.981Z,20.73
2022-08-03T00:17:03.995Z,20.73
2022-08-03T00:18:03.974Z,20.71
2022-08-03T00:19:03.976Z,20.68
2022-08-03T00:20:03.950Z,20.68
2022-08-03T00:21:03.947Z,20.61
2022-08-03T00:22:03.946Z,20.63
2022-08-03T00:23:03.957Z,20.63
2022-08-03T00:24:03.927Z,20.61
2022-08-03T00:25:03.918Z,20.61
2022-08-03T00:26:03.895Z,20.63
2022-08-03T00:27:03.896Z,20.60
2022-08-03T00:28:03.876Z,20.63
2022-08-03T00:29:04.170Z,20.61
2022-08-03T00:30:03.882Z,20.61
2022-08-03T00:31:03.857Z,20.63
2022-08-03T00:32:03.846Z,20.61
2022-08-03T00:33:03.889Z,20.61
2022-08-03T00:34:04.280Z,20.61
2022-08-03T00:35:08.124Z,20.63
2022-08-03T00:36:03.824Z,20.64
2022-08-03T00:37:03.812Z,20.61
2022-08-03T00:38:03.804Z,20.61
2022-08-03T00:39:03.790Z,20.60
2022-08-03T00:40:03.793Z,20.61
2022-08-03T00:41:03.791Z,20.63
2022-08-03T00:42:03.762Z,20.60
2022-08-03T00:43:03.766Z,20.60
2022-08-03T00:44:03.745Z,20.57
2022-08-03T00:45:03.735Z,20.60
2022-08-03T00:46:03.725Z,20.58
2022-08-03T00:47:03.744Z,20.58
2022-08-03T00:48:03.718Z,20.58
2022-08-03T00:49:03.870Z,20.56
2022-08-03T00:50:03.700Z,20.57
2022-08-03T00:51:03.701Z,20.57
2022-08-03T00:52:09.542Z,20.56
2022-08-03T00:53:03.697Z,20.54
2022-08-03T00:54:03.671Z,20.54
2022-08-03T00:55:03.648Z,20.53
2022-08-03T00:56:03.654Z,20.53
2022-08-03T00:57:03.656Z,20.53
2022-08-03T00:58:03.633Z,20.53
2022-08-03T00:59:03.654Z,20.50
2022-08-03T01:00:03.610Z,20.48
2022-08-03T01:01:03.669Z,20.50
2022-08-03T01:02:03.605Z,20.46
2022-08-03T01:03:03.597Z,20.44
2022-08-03T01:04:03.573Z,20.41
2022-08-03T01:05:03.595Z,20.42
2022-08-03T01:06:03.566Z,20.42
2022-08-03T01:07:03.552Z,20.40
2022-08-03T01:08:03.537Z,20.40
2022-08-03T01:09:03.546Z,20.37
2022-08-03T01:10:03.529Z,20.37
2022-08-03T01:11:03.566Z,20.34
2022-08-03T01:12:03.505Z,20.33
2022-08-03T01:13:03.499Z,20.34
2022-08-03T01:14:18.227Z,20.34
2022-08-03T01:15:03.483Z,20.33
2022-08-03T01:16:03.487Z,20.31
2022-08-03T01:17:03.483Z,20.31
2022-08-03T01:18:03.463Z,20.27
2022-08-03T01:19:03.450Z,20.30
2022-08-03T01:20:03.433Z,20.27
2022-08-03T01:21:03.442Z,20.30
2022-08-03T01:22:03.417Z,20.26
2022-08-03T01:23:03.431Z,20.27
2022-08-03T01:24:03.414Z,20.26
2022-08-03T01:25:03.400Z,20.26
2022-08-03T01:26:03.394Z,20.27
2022-08-03T01:27:03.518Z,20.26
2022-08-03T01:28:03.362Z,20.25
2022-08-03T01:29:03.397Z,20.25
2022-08-03T01:30:03.352Z,20.22
2022-08-03T01:31:03.361Z,20.20
2022-08-03T01:32:59.599Z,20.20
2022-08-03T01:33:03.607Z,20.19
2022-08-03T01:34:03.327Z,20.20
2022-08-03T01:35:03.342Z,20.17
2022-08-03T01:36:03.311Z,20.15
2022-08-03T01:37:03.295Z,20.12
2022-08-03T01:38:03.289Z,20.10
2022-08-03T01:39:03.276Z,20.10
2022-08-03T01:40:03.270Z,20.13
2022-08-03T01:41:03.268Z,20.13
2022-08-03T01:42:03.278Z,20.10
2022-08-03T01:43:03.262Z,20.10
2022-08-03T01:44:29.965Z,20.12
2022-08-03T01:45:03.228Z,20.10
2022-08-03T01:46:03.210Z,20.08
2022-08-03T01:47:03.225Z,20.10
2022-08-03T01:48:03.204Z,20.10
2022-08-03T01:49:09.127Z,20.10
2022-08-03T01:50:03.184Z,20.07
2022-08-03T01:51:03.185Z,20.07
2022-08-03T01:52:05.369Z,20.07
2022-08-03T01:53:03.186Z,20.05
2022-08-03T01:54:03.156Z,20.04
2022-08-03T01:55:03.133Z,20.02
2022-08-03T01:56:03.137Z,20.02
2022-08-03T01:57:03.125Z,20.02
2022-08-03T01:58:05.720Z,20.02
2022-08-03T01:59:03.105Z,20.01
2022-08-03T02:00:03.087Z,20.02
2022-08-03T02:01:03.150Z,20.01
2022-08-03T02:02:15.649Z,19.98
2022-08-03T02:03:03.082Z,20.01
2022-08-03T02:04:03.089Z,19.98
2022-08-03T02:05:03.085Z,19.97
2022-08-03T02:06:55.591Z,19.98
2022-08-03T02:07:03.547Z,20.00
2022-08-03T02:08:03.019Z,19.98
2022-08-03T02:09:03.034Z,19.95
2022-08-03T02:10:03.013Z,19.94
2022-08-03T02:11:03.030Z,19.94
2022-08-03T02:12:02.994Z,19.90
2022-08-03T02:13:02.981Z,19.89
2022-08-03T02:14:02.973Z,19.90
2022-08-03T02:15:02.961Z,19.90
2022-08-03T02:16:02.965Z,19.89
2022-08-03T02:17:02.978Z,19.89
2022-08-03T02:18:02.932Z,19.89
2022-08-03T02:19:02.932Z,19.87
2022-08-03T02:20:02.928Z,19.86
2022-08-03T02:21:05.411Z,19.86
2022-08-03T02:22:02.916Z,19.86
2022-08-03T02:23:02.927Z,19.87
2022-08-03T02:24:02.883Z,19.89
2022-08-03T02:25:02.892Z,19.87
2022-08-03T02:26:02.865Z,19.86
2022-08-03T02:27:02.871Z,19.85
2022-08-03T02:28:02.860Z,19.86
2022-08-03T02:29:02.861Z,19.85
2022-08-03T02:30:02.902Z,19.86
2022-08-03T02:31:02.840Z,19.83
2022-08-03T02:32:02.809Z,19.83
2022-08-03T02:33:02.808Z,19.83
2022-08-03T02:34:02.798Z,19.82
2022-08-03T02:35:02.833Z,19.80
2022-08-03T02:36:02.799Z,19.79
2022-08-03T02:37:02.779Z,19.78
2022-08-03T02:38:02.776Z,19.79
2022-08-03T02:39:02.769Z,19.76
2022-08-03T02:40:02.741Z,19.72
2022-08-03T02:41:02.752Z,19.72
2022-08-03T02:42:03.273Z,19.75
2022-08-03T02:43:02.723Z,19.71
2022-08-03T02:44:06.938Z,19.68
2022-08-03T02:45:02.717Z,19.65
2022-08-03T02:46:02.706Z,19.64
2022-08-03T02:47:02.717Z,19.65
2022-08-03T02:48:02.691Z,19.64
2022-08-03T02:49:41.137Z,19.64
2022-08-03T02:50:02.725Z,19.65
2022-08-03T02:51:02.669Z,19.62
2022-08-03T02:52:02.643Z,19.62
2022-08-03T02:53:02.657Z,19.62
2022-08-03T02:54:02.631Z,19.62
2022-08-03T02:55:02.631Z,19.61
2022-08-03T02:56:02.608Z,19.61
2022-08-03T02:57:02.612Z,19.61
2022-08-03T02:58:02.603Z,19.62
2022-08-03T02:59:02.603Z,19.60
2022-08-03T03:00:02.584Z,19.61
2022-08-03T03:01:02.606Z,19.58
2022-08-03T03:02:02.560Z,19.58
2022-08-03T03:03:02.556Z,19.60
2022-08-03T03:04:02.555Z,19.61
2022-08-03T03:05:56.042Z,19.60
2022-08-03T03:06:05.609Z,19.61
2022-08-03T03:07:03.724Z,19.62
2022-08-03T03:08:02.504Z,19.61
2022-08-03T03:09:02.503Z,19.61
2022-08-03T03:10:02.508Z,19.61
2022-08-03T03:11:02.494Z,19.60
2022-08-03T03:12:02.476Z,19.60
2022-08-03T03:13:02.465Z,19.60
2022-08-03T03:14:02.456Z,19.58
2022-08-03T03:15:02.449Z,19.55
2022-08-03T03:16:02.436Z,19.57
2022-08-03T03:17:02.467Z,19.58
2022-08-03T03:18:02.439Z,19.58
2022-08-03T03:19:02.408Z,19.55
2022-08-03T03:20:02.399Z,19.60
2022-08-03T03:21:02.403Z,19.57
2022-08-03T03:22:02.390Z,19.57
2022-08-03T03:23:02.389Z,19.57
2022-08-03T03:24:02.371Z,19.58
2022-08-03T03:25:02.365Z,19.57
2022-08-03T03:26:02.392Z,19.57
2022-08-03T03:27:02.339Z,19.55
2022-08-03T03:28:02.335Z,19.57
2022-08-03T03:29:02.355Z,19.57
2022-08-03T03:30:02.321Z,19.58
2022-08-03T03:31:02.305Z,19.55
2022-08-03T03:32:02.578Z,19.57
2022-08-03T03:33:02.300Z,19.53
2022-08-03T03:34:02.286Z,19.55
2022-08-03T03:35:02.305Z,19.55
2022-08-03T03:36:02.264Z,19.52
2022-08-03T03:37:02.255Z,19.52
2022-08-03T03:38:02.261Z,19.52
2022-08-03T03:39:15.676Z,19.52
2022-08-03T03:40:02.250Z,19.50
2022-08-03T03:41:02.250Z,19.49
2022-08-03T03:42:02.218Z,19.49
2022-08-03T03:43:02.197Z,19.49
2022-08-03T03:44:02.211Z,19.49
2022-08-03T03:45:02.187Z,19.47
2022-08-03T03:46:02.178Z,19.46
2022-08-03T03:47:02.193Z,19.47
2022-08-03T03:48:02.170Z,19.45
2022-08-03T03:49:02.187Z,19.43
2022-08-03T03:50:02.150Z,19.45
2022-08-03T03:51:02.153Z,19.43
2022-08-03T03:52:02.143Z,19.42
2022-08-03T03:53:02.146Z,19.42
2022-08-03T03:54:02.113Z,19.40
2022-08-03T03:55:02.118Z,19.40
2022-08-03T03:56:03.083Z,19.38
2022-08-03T03:57:02.096Z,19.35
2022-08-03T03:58:02.087Z,19.31
2022-08-03T03:59:02.353Z,19.30
2022-08-03T04:00:02.076Z,19.31
2022-08-03T04:01:02.162Z,19.30
2022-08-03T04:02:02.059Z,19.30
2022-08-03T04:03:02.039Z,19.31
2022-08-03T04:04:02.040Z,19.31
2022-08-03T04:05:02.036Z,19.31
2022-08-03T04:06:02.022Z,19.30
2022-08-03T04:07:02.012Z,19.31
2022-08-03T04:08:02.001Z,19.30
2022-08-03T04:09:01.980Z,19.28
2022-08-03T04:10:14.058Z,19.30
2022-08-03T04:11:01.992Z,19.30
2022-08-03T04:12:01.973Z,19.28
2022-08-03T04:13:01.961Z,19.31
2022-08-03T04:14:02.286Z,19.31
2022-08-03T04:15:01.930Z,19.31
2022-08-03T04:16:01.934Z,19.31
2022-08-03T04:17:01.946Z,19.30
2022-08-03T04:18:01.915Z,19.30
2022-08-03T04:19:01.923Z,19.31
2022-08-03T04:20:01.897Z,19.30
2022-08-03T04:21:01.873Z,19.30
2022-08-03T04:22:01.885Z,19.27
2022-08-03T04:23:01.894Z,19.30
2022-08-03T04:24:01.944Z,19.30
2022-08-03T04:25:01.844Z,19.28
2022-08-03T04:26:01.856Z,19.28
2022-08-03T04:27:01.841Z,19.27
2022-08-03T04:28:28.343Z,19.25
2022-08-03T04:29:01.828Z,19.24
2022-08-03T04:30:01.820Z,19.25
2022-08-03T04:31:01.808Z,19.24
2022-08-03T04:32:02.073Z,19.24
2022-08-03T04:33:01.789Z,19.23
2022-08-03T04:34:01.782Z,19.23
2022-08-03T04:35:01.779Z,19.20
2022-08-03T04:36:03.635Z,19.16
2022-08-03T04:37:01.754Z,19.15
2022-08-03T04:38:01.753Z,19.15
2022-08-03T04:39:01.722Z,19.15
2022-08-03T04:40:01.721Z,19.16
2022-08-03T04:41:01.733Z,19.17
2022-08-03T04:42:07.644Z,19.17
2022-08-03T04:43:01.695Z,19.16
2022-08-03T04:44:01.700Z,19.20
2022-08-03T04:45:02.028Z,19.16
2022-08-03T04:46:01.693Z,19.16
2022-08-03T04:47:01.664Z,19.17
2022-08-03T04:48:02.936Z,19.17
2022-08-03T04:49:01.662Z,19.17
2022-08-03T04:50:01.637Z,19.20
2022-08-03T04:51:01.623Z,19.23
2022-08-03T04:52:01.616Z,19.21
2022-08-03T04:53:01.637Z,19.21
2022-08-03T04:54:01.597Z,19.27
2022-08-03T04:55:01.590Z,19.31
2022-08-03T04:56:01.603Z,19.38
2022-08-03T04:57:01.586Z,19.42
2022-08-03T04:58:01.572Z,19.49
2022-08-03T04:59:01.559Z,19.55
2022-08-03T05:00:03.348Z,19.60
2022-08-03T05:01:01.544Z,19.68
2022-08-03T05:02:01.637Z,19.76
2022-08-03T05:03:01.520Z,19.82
2022-08-03T05:04:01.528Z,19.87
2022-08-03T05:05:01.530Z,19.92
2022-08-03T05:06:10.979Z,19.94
2022-08-03T05:07:11.587Z,20.01
2022-08-03T05:08:01.483Z,20.05
2022-08-03T05:09:01.478Z,20.10
2022-08-03T05:10:03.288Z,20.13
2022-08-03T05:11:01.475Z,20.16
2022-08-03T05:12:01.460Z,20.20
2022-08-03T05:13:01.436Z,20.23
2022-08-03T05:14:01.439Z,20.26
2022-08-03T05:15:01.431Z,20.30
2022-08-03T05:16:01.420Z,20.33
2022-08-03T05:17:01.418Z,20.37
2022-08-03T05:18:01.395Z,20.40
2022-08-03T05:19:01.379Z,20.44
2022-08-03T05:20:01.378Z,20.48
2022-08-03T05:21:01.359Z,20.50
2022-08-03T05:22:01.373Z,20.56
2022-08-03T05:23:01.373Z,20.57
2022-08-03T05:24:01.344Z,20.60
2022-08-03T05:25:01.332Z,20.63
2022-08-03T05:26:01.325Z,20.69
2022-08-03T05:27:01.326Z,20.71
2022-08-03T05:28:01.332Z,20.76
2022-08-03T05:29:01.328Z,20.81
2022-08-03T05:30:30.907Z,20.83
2022-08-03T05:31:01.274Z,20.88
2022-08-03T05:32:06.226Z,20.90
2022-08-03T05:33:01.275Z,20.94
2022-08-03T05:34:01.268Z,20.96
2022-08-03T05:35:01.244Z,21.00
2022-08-03T05:36:04.310Z,21.01
2022-08-03T05:37:01.226Z,21.03
2022-08-03T05:38:01.216Z,21.06
2022-08-03T05:39:02.942Z,21.08
2022-08-03T05:40:01.207Z,21.09
2022-08-03T05:41:20.939Z,21.09
2022-08-03T05:42:01.188Z,21.12
2022-08-03T05:43:01.188Z,21.11
2022-08-03T05:44:01.182Z,21.12
2022-08-03T05:45:01.172Z,21.12
2022-08-03T05:46:11.750Z,21.15
2022-08-03T05:47:01.160Z,21.15
2022-08-03T05:48:01.144Z,21.21
2022-08-03T05:49:01.173Z,21.24
2022-08-03T05:50:01.121Z,21.30
2022-08-03T05:51:01.111Z,21.36
2022-08-03T05:52:13.364Z,21.42
2022-08-03T05:53:01.123Z,21.49
2022-08-03T05:54:01.098Z,21.59
2022-08-03T05:55:01.094Z,21.66
2022-08-03T05:56:13.206Z,21.74
2022-08-03T05:57:01.070Z,21.86
2022-08-03T05:58:01.055Z,21.98
2022-08-03T05:59:16.290Z,22.08
2022-08-03T06:00:01.058Z,22.20
2022-08-03T06:01:01.027Z,22.30
2022-08-03T06:02:01.139Z,22.42
2022-08-03T06:03:01.022Z,22.52
2022-08-03T06:04:01.019Z,22.61
2022-08-03T06:05:01.008Z,22.70
2022-08-03T06:06:00.991Z,22.79
2022-08-03T06:07:00.978Z,22.89
2022-08-03T06:08:00.984Z,23.00
2022-08-03T06:09:00.963Z,23.07
2022-08-03T06:10:36.657Z,23.15
2022-08-03T06:11:00.976Z,23.19
2022-08-03T06:12:00.941Z,23.23
2022-08-03T06:13:00.936Z,23.29
2022-08-03T06:14:00.939Z,23.37
2022-08-03T06:15:00.923Z,23.42
2022-08-03T06:16:00.916Z,23.47
2022-08-03T06:17:00.928Z,23.53
2022-08-03T06:18:02.190Z,23.60
2022-08-03T06:19:00.897Z,23.63
2022-08-03T06:20:00.876Z,23.69
2022-08-03T06:21:09.699Z,23.74
2022-08-03T06:22:00.871Z,23.79
2022-08-03T06:23:01.482Z,23.81
2022-08-03T06:24:00.844Z,23.87
2022-08-03T06:25:04.932Z,23.93
2022-08-03T06:26:00.841Z,23.93
2022-08-03T06:27:00.822Z,23.97
2022-08-03T06:28:00.824Z,24.00
2022-08-03T06:29:00.912Z,24.02
2022-08-03T06:30:00.797Z,24.05
2022-08-03T06:31:00.781Z,24.09
2022-08-03T06:32:00.781Z,24.11
2022-08-03T06:33:00.768Z,24.15
2022-08-03T06:34:32.275Z,24.19
2022-08-03T06:35:00.782Z,24.23
2022-08-03T06:36:00.742Z,24.23
2022-08-03T06:37:02.308Z,24.24
2022-08-03T06:38:00.747Z,24.26
2022-08-03T06:39:00.735Z,24.27
2022-08-03T06:40:00.727Z,24.29
2022-08-03T06:41:00.723Z,24.34
2022-08-03T06:42:00.695Z,24.36
2022-08-03T06:43:00.685Z,24.37
2022-08-03T06:44:03.734Z,24.42
2022-08-03T06:45:00.681Z,24.45
2022-08-03T06:46:00.681Z,24.48
2022-08-03T06:47:00.689Z,24.49
2022-08-03T06:48:00.654Z,24.51
2022-08-03T06:49:00.702Z,24.53
2022-08-03T06:50:12.932Z,24.56
2022-08-03T06:51:00.619Z,24.60
2022-08-03T06:52:03.347Z,24.61
2022-08-03T06:53:00.621Z,24.64
2022-08-03T06:54:00.602Z,24.64
2022-08-03T06:55:00.598Z,24.67
2022-08-03T06:56:00.590Z,24.71
2022-08-03T06:57:00.572Z,24.74
2022-08-03T06:58:03.616Z,24.80
2022-08-03T06:59:00.598Z,24.84
2022-08-03T07:00:08.643Z,24.86
2022-08-03T07:01:00.602Z,24.87
2022-08-03T07:02:00.534Z,24.90
2022-08-03T07:03:00.524Z,24.97
2022-08-03T07:04:00.550Z,24.97
2022-08-03T07:05:00.539Z,25.01
2022-08-03T07:06:00.521Z,25.05
2022-08-03T07:07:00.496Z,25.09
2022-08-03T07:08:00.488Z,25.17
2022-08-03T07:09:00.477Z,25.20
2022-08-03T07:10:00.479Z,25.24
2022-08-03T07:11:00.479Z,25.29
2022-08-03T07:12:00.478Z,25.34
2022-08-03T07:13:00.461Z,25.39
2022-08-03T07:14:00.453Z,25.45
2022-08-03T07:15:02.214Z,25.49
2022-08-03T07:16:00.421Z,25.54
2022-08-03T07:17:00.441Z,25.57
2022-08-03T07:18:00.413Z,25.57
2022-08-03T07:19:00.416Z,25.57
2022-08-03T07:20:00.407Z,25.59
2022-08-03T07:21:00.405Z,25.61
2022-08-03T07:22:02.392Z,25.63
2022-08-03T07:23:00.397Z,25.63
2022-08-03T07:24:00.378Z,25.64
2022-08-03T07:25:00.374Z,25.64
2022-08-03T07:26:00.359Z,25.66
2022-08-03T07:27:00.337Z,25.69
2022-08-03T07:28:00.339Z,25.67
2022-08-03T07:29:00.337Z,25.74
2022-08-03T07:30:00.323Z,25.75
2022-08-03T07:31:00.311Z,25.76
2022-08-03T07:32:00.318Z,25.79
2022-08-03T07:33:00.310Z,25.82
2022-08-03T07:34:00.282Z,25.85
2022-08-03T07:35:01.382Z,25.89
2022-08-03T07:36:00.269Z,25.93
2022-08-03T07:37:00.274Z,25.98
2022-08-03T07:38:00.251Z,26.01
2022-08-03T07:39:00.241Z,26.08
2022-08-03T07:40:00.235Z,26.11
2022-08-03T07:41:00.253Z,26.11
2022-08-03T07:42:00.237Z,26.13
2022-08-03T07:43:00.231Z,26.13
2022-08-03T07:44:00.217Z,26.16
2022-08-03T07:45:00.221Z,26.16
2022-08-03T07:46:00.184Z,26.16
2022-08-03T07:47:00.198Z,26.19
2022-08-03T07:48:00.167Z,26.23
2022-08-03T07:49:00.261Z,26.27
2022-08-03T07:50:00.185Z,26.31
2022-08-03T07:51:00.163Z,26.35
2022-08-03T07:52:00.151Z,26.38
2022-08-03T07:53:00.150Z,26.41
2022-08-03T07:54:00.135Z,26.44
2022-08-03T07:55:00.113Z,26.49
2022-08-03T07:56:00.112Z,26.51
2022-08-03T07:57:00.090Z,26.57
2022-08-03T07:58:00.095Z,26.60
2022-08-03T07:59:00.091Z,26.61
2022-08-03T08:00:02.468Z,26.61
2022-08-03T08:01:00.123Z,26.64
2022-08-03T08:02:00.052Z,26.65
2022-08-03T08:03:00.045Z,26.68
2022-08-03T08:04:00.034Z,26.72
2022-08-03T08:05:04.972Z,26.78
2022-08-03T08:06:00.023Z,26.81
2022-08-03T08:07:00.028Z,26.84
2022-08-03T08:08:00.064Z,26.86
2022-08-03T08:09:00.013Z,26.86
2022-08-03T08:09:59.990Z,26.86
2022-08-03T08:11:00.014Z,26.86
2022-08-03T08:11:59.990Z,26.93
2022-08-03T08:12:59.957Z,26.96
2022-08-03T08:13:59.948Z,26.98
2022-08-03T08:14:59.939Z,26.97
2022-08-03T08:15:59.945Z,27.01
2022-08-03T08:17:03.303Z,27.02
2022-08-03T08:17:59.910Z,27.03
2022-08-03T08:18:59.901Z,27.08
2022-08-03T08:19:59.892Z,27.12
2022-08-03T08:20:59.889Z,27.13
2022-08-03T08:22:01.988Z,27.16
2022-08-03T08:23:01.131Z,27.18
2022-08-03T08:23:59.852Z,27.21
2022-08-03T08:25:01.078Z,27.21
2022-08-03T08:25:59.847Z,27.23
2022-08-03T08:26:59.848Z,27.25
2022-08-03T08:28:30.434Z,27.27
2022-08-03T08:28:59.836Z,27.30
2022-08-03T08:30:07.280Z,27.33
2022-08-03T08:30:59.796Z,27.34
2022-08-03T08:31:59.786Z,27.39
2022-08-03T08:32:59.801Z,27.40
2022-08-03T08:34:04.401Z,27.43
2022-08-03T08:34:59.792Z,27.45
2022-08-03T08:35:59.759Z,27.48
2022-08-03T08:36:59.753Z,27.48
2022-08-03T08:37:59.738Z,27.49
2022-08-03T08:38:59.731Z,27.48
2022-08-03T08:39:59.735Z,27.50
2022-08-03T08:40:59.750Z,27.50
2022-08-03T08:41:59.716Z,27.53
2022-08-03T08:42:59.703Z,27.55
2022-08-03T08:44:00.214Z,27.55
2022-08-03T08:44:59.682Z,27.58
2022-08-03T08:45:59.672Z,27.61
2022-08-03T08:46:59.694Z,27.59
2022-08-03T08:48:02.544Z,27.62
2022-08-03T08:48:59.747Z,27.65
2022-08-03T08:50:09.670Z,27.68
2022-08-03T08:50:59.647Z,27.69
2022-08-03T08:52:01.168Z,27.71
2022-08-03T08:52:59.727Z,27.72
2022-08-03T08:53:59.619Z,27.74
2022-08-03T08:55:00.191Z,27.76
2022-08-03T08:56:00.769Z,27.81
2022-08-03T08:56:59.591Z,27.84
2022-08-03T08:57:59.569Z,27.88
2022-08-03T08:58:59.589Z,27.91
2022-08-03T08:59:59.565Z,27.96
2022-08-03T09:00:59.557Z,27.98
2022-08-03T09:01:59.540Z,27.99
2022-08-03T09:04:25.475Z,27.99
2022-08-03T09:05:54.663Z,27.98
2022-08-03T09:06:25.462Z,27.99
2022-08-03T09:07:25.445Z,28.02
2022-08-03T09:08:25.446Z,28.05
2022-08-03T09:10:05.917Z,28.05
2022-08-03T09:10:25.447Z,28.13
2022-08-03T09:11:54.477Z,28.11
2022-08-03T09:12:41.941Z,28.08
2022-08-03T09:13:25.399Z,28.08
2022-08-03T09:14:36.550Z,28.11
2022-08-03T09:15:25.402Z,28.15
2022-08-03T09:16:25.392Z,28.17
2022-08-03T09:17:25.373Z,28.18
2022-08-03T09:18:25.359Z,28.20
2022-08-03T09:19:25.354Z,28.21
2022-08-03T09:20:25.363Z,28.18
2022-08-03T09:21:33.537Z,28.17
2022-08-03T09:22:25.345Z,28.17
2022-08-03T09:23:51.812Z,28.15
2022-08-03T09:24:40.582Z,28.14
2022-08-03T09:25:25.413Z,28.14
2022-08-03T09:26:25.294Z,28.18
2022-08-03T09:27:26.172Z,28.20
2022-08-03T09:29:01.328Z,28.23
2022-08-03T09:29:25.264Z,28.23
2022-08-03T09:30:33.742Z,28.23
2022-08-03T09:31:25.248Z,28.25
2022-08-03T09:32:25.246Z,28.25
2022-08-03T09:33:25.229Z,28.24
2022-08-03T09:34:25.520Z,28.25
2022-08-03T09:35:51.515Z,28.25
2022-08-03T09:36:25.222Z,28.28
2022-08-03T09:38:06.002Z,28.28
2022-08-03T09:38:25.189Z,28.32
2022-08-03T09:39:41.191Z,28.36
2022-08-03T09:40:25.189Z,28.33
2022-08-03T09:41:25.163Z,28.32
2022-08-03T09:42:25.174Z,28.27
2022-08-03T09:43:25.155Z,28.24
2022-08-03T09:44:26.205Z,28.18
2022-08-03T09:45:25.138Z,28.17
2022-08-03T09:46:25.157Z,28.13
2022-08-03T09:47:28.207Z,28.13
2022-08-03T09:48:25.117Z,28.14
2022-08-03T09:49:25.412Z,28.17
2022-08-03T09:50:25.099Z,28.21
2022-08-03T09:52:17.950Z,28.24
2022-08-03T09:52:37.731Z,28.27
2022-08-03T09:53:25.057Z,28.30
2022-08-03T09:54:25.048Z,28.33
2022-08-03T09:56:33.263Z,28.36
2022-08-03T09:56:35.002Z,28.38
2022-08-03T09:57:25.031Z,28.43
2022-08-03T09:58:25.042Z,28.46
2022-08-03T09:59:25.020Z,28.51
2022-08-03T10:00:24.998Z,28.54
2022-08-03T10:01:25.574Z,28.58
2022-08-03T10:02:24.994Z,28.61
2022-08-03T10:03:24.985Z,28.65
2022-08-03T10:04:24.982Z,28.65
2022-08-03T10:05:25.003Z,28.67
2022-08-03T10:06:28.819Z,28.69
2022-08-03T10:07:24.940Z,28.72
2022-08-03T10:08:24.946Z,28.72
2022-08-03T10:09:24.918Z,28.70
2022-08-03T10:10:30.971Z,28.73
2022-08-03T10:11:24.899Z,28.77
2022-08-03T10:12:24.886Z,28.77
2022-08-03T10:13:24.890Z,28.74
2022-08-03T10:14:24.867Z,28.76
2022-08-03T10:16:23.399Z,28.77
2022-08-03T10:16:25.889Z,28.73
2022-08-03T10:17:24.853Z,28.70
2022-08-03T10:18:24.830Z,28.70
2022-08-03T10:19:24.819Z,28.65
2022-08-03T10:20:24.823Z,28.69
2022-08-03T10:21:24.810Z,28.67
2022-08-03T10:22:24.808Z,28.70
2022-08-03T10:23:24.803Z,28.73
2022-08-03T10:24:24.785Z,28.73
2022-08-03T10:25:24.772Z,28.74
2022-08-03T10:26:24.767Z,28.73
2022-08-03T10:27:24.768Z,28.74
2022-08-03T10:28:24.770Z,28.73
2022-08-03T10:29:24.748Z,28.73
2022-08-03T10:30:26.214Z,28.74
2022-08-03T10:31:24.734Z,28.76
2022-08-03T10:32:24.703Z,28.79
2022-08-03T10:33:50.158Z,28.80
2022-08-03T10:34:24.701Z,28.82
2022-08-03T10:35:24.713Z,28.82
2022-08-03T10:36:24.678Z,28.80
2022-08-03T10:37:24.659Z,28.80
2022-08-03T10:38:24.648Z,28.80
2022-08-03T10:39:24.660Z,28.79
2022-08-03T10:40:47.534Z,28.77
2022-08-03T10:41:24.631Z,28.73
2022-08-03T10:42:24.625Z,28.67
2022-08-03T10:43:24.623Z,28.64
2022-08-03T10:44:24.619Z,28.61
2022-08-03T10:45:24.593Z,28.62
2022-08-03T10:46:24.583Z,28.62
2022-08-03T10:47:24.573Z,28.62
2022-08-03T10:48:24.568Z,28.64
2022-08-03T10:49:34.008Z,28.64
2022-08-03T10:50:24.546Z,28.64
2022-08-03T10:51:24.557Z,28.65
2022-08-03T10:52:31.446Z,28.65
2022-08-03T10:53:24.527Z,28.67
2022-08-03T10:54:24.508Z,28.67
2022-08-03T10:55:24.522Z,28.67
2022-08-03T10:56:41.576Z,28.70
2022-08-03T10:57:24.634Z,28.67
2022-08-03T10:58:30.365Z,28.67
2022-08-03T10:59:27.912Z,28.65
2022-08-03T11:00:24.543Z,28.60
2022-08-03T11:01:24.500Z,28.62
2022-08-03T11:02:24.442Z,28.60
2022-08-03T11:03:24.433Z,28.62
2022-08-03T11:04:24.433Z,28.64
2022-08-03T11:05:24.412Z,28.64
2022-08-03T11:06:24.407Z,28.64
2022-08-03T11:07:24.394Z,28.65
2022-08-03T11:08:24.385Z,28.67
2022-08-03T11:09:24.374Z,28.65
2022-08-03T11:10:24.399Z,28.67
2022-08-03T11:11:24.357Z,28.70
2022-08-03T11:12:30.017Z,28.70
2022-08-03T11:13:24.350Z,28.70
2022-08-03T11:14:24.346Z,28.70
2022-08-03T11:15:24.340Z,28.73
2022-08-03T11:16:24.341Z,28.73
2022-08-03T11:17:24.307Z,28.76
2022-08-03T11:18:26.886Z,28.76
2022-08-03T11:19:24.290Z,28.77
2022-08-03T11:20:24.270Z,28.80
2022-08-03T11:21:27.685Z,28.77
2022-08-03T11:22:24.284Z,28.77
2022-08-03T11:24:04.913Z,28.79
2022-08-03T11:24:24.246Z,28.77
2022-08-03T11:25:54.027Z,28.77
2022-08-03T11:26:24.220Z,28.77
2022-08-03T11:27:24.214Z,28.79
2022-08-03T11:28:24.219Z,28.77
2022-08-03T11:29:24.208Z,28.73
2022-08-03T11:30:25.896Z,28.70
2022-08-03T11:31:49.796Z,28.72
2022-08-03T11:32:24.179Z,28.70
2022-08-03T11:33:24.157Z,28.72
2022-08-03T11:34:24.167Z,28.72
2022-08-03T11:35:24.146Z,28.73
2022-08-03T11:36:32.507Z,28.73
2022-08-03T11:37:27.598Z,28.74
2022-08-03T11:38:24.122Z,28.77
2022-08-03T11:39:24.121Z,28.79
2022-08-03T11:40:24.114Z,28.80
2022-08-03T11:41:24.103Z,28.79
2022-08-03T11:42:24.091Z,28.79
2022-08-03T11:43:26.689Z,28.77
2022-08-03T11:44:24.062Z,28.80
2022-08-03T11:45:24.067Z,28.79
2022-08-03T11:46:28.555Z,28.76
2022-08-03T11:47:24.056Z,28.77
2022-08-03T11:48:24.042Z,28.77
2022-08-03T11:49:24.061Z,28.77
2022-08-03T11:50:24.176Z,28.79
2022-08-03T11:51:24.007Z,28.79
2022-08-03T11:52:26.677Z,28.77
2022-08-03T11:53:23.987Z,28.74
2022-08-03T11:54:23.992Z,28.76
2022-08-03T11:55:26.762Z,28.76
2022-08-03T11:56:23.971Z,28.73
2022-08-03T11:57:23.958Z,28.69
2022-08-03T11:59:00.985Z,28.69
2022-08-03T11:59:23.940Z,28.64
2022-08-03T12:00:23.920Z,28.61
2022-08-03T12:01:23.935Z,28.61
2022-08-03T12:02:23.915Z,28.61
2022-08-03T12:03:23.987Z,28.60
2022-08-03T12:04:23.902Z,28.60
2022-08-03T12:05:23.897Z,28.60
2022-08-03T12:06:23.871Z,28.61
2022-08-03T12:08:02.532Z,28.60
2022-08-03T12:08:23.867Z,28.60
2022-08-03T12:09:23.849Z,28.58
2022-08-03T12:10:23.849Z,28.60
2022-08-03T12:11:23.828Z,28.61
2022-08-03T12:12:23.818Z,28.60
2022-08-03T12:14:44.982Z,28.60
2022-08-03T12:14:49.019Z,28.61
2022-08-03T12:15:23.798Z,28.62
2022-08-03T12:16:23.816Z,28.61
2022-08-03T12:17:23.792Z,28.61
2022-08-03T12:18:23.759Z,28.61
2022-08-03T12:19:23.760Z,28.61
2022-08-03T12:20:34.450Z,28.62
2022-08-03T12:21:23.740Z,28.61
2022-08-03T12:22:23.746Z,28.60
2022-08-03T12:23:23.722Z,28.60
2022-08-03T12:24:23.714Z,28.58
2022-08-03T12:25:38.454Z,28.57
2022-08-03T12:26:23.707Z,28.57
2022-08-03T12:27:23.705Z,28.60
2022-08-03T12:28:35.950Z,28.60
2022-08-03T12:29:23.687Z,28.60
2022-08-03T12:30:23.669Z,28.57
2022-08-03T12:31:23.656Z,28.55
2022-08-03T12:32:23.650Z,28.54
2022-08-03T12:33:23.651Z,28.52
2022-08-03T12:34:23.698Z,28.48
2022-08-03T12:35:23.619Z,28.50
2022-08-03T12:36:23.622Z,28.48
2022-08-03T12:37:23.973Z,28.48
2022-08-03T12:38:23.588Z,28.48
2022-08-03T12:39:23.596Z,28.48
2022-08-03T12:40:27.970Z,28.51
2022-08-03T12:41:23.561Z,28.52
2022-08-03T12:42:23.551Z,28.54
2022-08-03T12:43:23.542Z,28.55
2022-08-03T12:44:23.533Z,28.57
2022-08-03T12:45:23.536Z,28.57
2022-08-03T12:46:23.537Z,28.60
2022-08-03T12:47:23.517Z,28.60
2022-08-03T12:48:23.567Z,28.61
2022-08-03T12:49:23.529Z,28.61
2022-08-03T12:50:23.489Z,28.64
2022-08-03T12:51:23.490Z,28.64
2022-08-03T12:52:23.476Z,28.65
2022-08-03T12:53:23.458Z,28.67